Sheboygan Falls, Wisconsin
Current Conditions -  °F | °C
As of 10:53 AM on Saturday 25 Oct 2014 (Local Time) from KSBM Reporting Station
Clear Clear  
Wind Chill: 62°   Ceiling: Unl
Heat Index: 62°   Visibility: 10mi
Dew Point: 37°   Wind: 13mph
Humidity: 39%   Direction: 290°WNW
Pressure: 29.87"   Gusts: 24mph
Location:  43.73°N, 87.81°W
Report Text: KSBM 251553Z AUTO 29011G21KT 10SM CLR 17/03 A2987 RMK AO2 SLP116 T01670028
Loading
Personal Weather Stations






























Interactive Weather Map
Tropical Storm Tracking
New forecast layout! Learn more

10-Day Weather Forecast

Advertisements
Track Severe Weather on mobile